createdAt,value
2018-12-16T00:01:41.281Z,96316.39
2018-12-16T00:04:12.225Z,96306.92
2018-12-16T00:06:42.288Z,96305.19
2018-12-16T00:09:13.131Z,96305.19
2018-12-16T00:11:43.481Z,96316.08
2018-12-16T00:14:13.567Z,96316.03
2018-12-16T00:16:43.605Z,96306.81
2018-12-16T00:19:13.796Z,96310.58
2018-12-16T00:21:44.646Z,96313.61
2018-12-16T00:24:14.679Z,96313.33
2018-12-16T00:26:56.008Z,96303.66
2018-12-16T00:29:26.434Z,96301.61
2018-12-16T00:31:56.485Z,96297.75
2018-12-16T00:34:26.837Z,96287.23
2018-12-16T00:36:56.876Z,96288.86
2018-12-16T00:39:27.308Z,96285.55
2018-12-16T00:41:57.618Z,96292.77
2018-12-16T00:44:27.662Z,96294.92
2018-12-16T00:46:57.849Z,96285.28
2018-12-16T00:49:27.876Z,96272.63
2018-12-16T00:51:57.968Z,96275.23
2018-12-16T00:54:28.020Z,96276.87
2018-12-16T00:56:58.036Z,96271.00
2018-12-16T00:59:28.082Z,96272.25
2018-12-16T01:01:58.953Z,96268.08
2018-12-16T01:04:30.821Z,96272.27
2018-12-16T01:07:01.014Z,96266.40
2018-12-16T01:09:31.024Z,96262.58
2018-12-16T01:12:01.688Z,96255.47
2018-12-16T01:14:31.847Z,96258.39
2018-12-16T01:17:02.275Z,96257.98
2018-12-16T01:19:32.874Z,96252.16
2018-12-16T01:22:02.921Z,96253.41
2018-12-16T01:24:33.190Z,96250.50
2018-12-16T01:27:03.418Z,96247.61
2018-12-16T01:29:33.473Z,96242.54
2018-12-16T01:32:03.698Z,96231.19
2018-12-16T01:34:33.745Z,96219.50
2018-12-16T01:37:03.945Z,96219.09
2018-12-16T01:39:34.199Z,96214.55
2018-12-16T01:42:04.236Z,96211.28
2018-12-16T01:44:34.290Z,96212.13
2018-12-16T01:47:04.493Z,96208.45
2018-12-16T01:49:34.672Z,96204.59
2018-12-16T01:52:04.996Z,96204.69
2018-12-16T01:54:35.294Z,96199.72
2018-12-16T01:57:05.650Z,96193.39
2018-12-16T01:59:35.733Z,96191.26
2018-12-16T02:02:05.772Z,96188.70
2018-12-16T02:04:35.936Z,96186.97
2018-12-16T02:07:06.461Z,96187.42
2018-12-16T02:09:36.524Z,96181.14
2018-12-16T02:12:06.756Z,96179.43
2018-12-16T02:14:37.469Z,96171.95
2018-12-16T02:17:07.809Z,96165.20
2018-12-16T02:19:37.845Z,96171.09
2018-12-16T02:22:07.917Z,96150.60
2018-12-16T02:24:37.976Z,96146.41
2018-12-16T02:27:08.170Z,96149.39
2018-12-16T02:29:38.228Z,96147.71
2018-12-16T02:32:08.460Z,96146.41
2018-12-16T02:34:38.511Z,96143.47
2018-12-16T02:37:08.650Z,96138.83
2018-12-16T02:39:38.665Z,96137.56
2018-12-16T02:42:08.706Z,96139.66
2018-12-16T02:44:38.731Z,96136.36
2018-12-16T02:47:08.909Z,96132.69
2018-12-16T02:49:39.578Z,96130.13
2018-12-16T02:52:09.601Z,96132.19
2018-12-16T02:54:39.621Z,96127.16
2018-12-16T02:57:09.799Z,96128.92
2018-12-16T02:59:39.799Z,96135.63
2018-12-16T03:02:10.627Z,96133.59
2018-12-16T03:04:41.934Z,96131.13
2018-12-16T03:07:12.062Z,96129.45
2018-12-16T03:09:42.223Z,96121.87
2018-12-16T03:12:12.222Z,96124.75
2018-12-16T03:14:42.525Z,96119.36
2018-12-16T03:17:12.584Z,96119.73
2018-12-16T03:19:42.666Z,96120.61
2018-12-16T03:22:12.778Z,96117.64
2018-12-16T03:24:42.844Z,96123.97
2018-12-16T03:27:13.143Z,96118.16
2018-12-16T03:29:43.887Z,96121.87
2018-12-16T03:32:14.214Z,96121.87
2018-12-16T03:34:44.377Z,96128.57
2018-12-16T03:37:14.405Z,96116.06
2018-12-16T03:39:44.456Z,96121.46
2018-12-16T03:42:14.613Z,96118.95
2018-12-16T03:44:44.616Z,96116.96
2018-12-16T03:47:14.784Z,96113.59
2018-12-16T03:49:46.563Z,96111.66
2018-12-16T03:52:16.596Z,96109.10
2018-12-16T03:54:46.950Z,96102.40
2018-12-16T03:57:17.001Z,96102.40
2018-12-16T03:59:47.781Z,96097.38
2018-12-16T04:02:17.806Z,96093.56
2018-12-16T04:04:47.822Z,96088.08
2018-12-16T04:07:17.874Z,96092.31
2018-12-16T04:09:48.028Z,96087.36
2018-12-16T04:12:18.131Z,96093.26
2018-12-16T04:14:49.561Z,96098.28
2018-12-16T04:17:19.596Z,96101.99
2018-12-16T04:19:49.865Z,96100.73
2018-12-16T04:22:20.082Z,96096.97
2018-12-16T04:24:50.121Z,96096.65
2018-12-16T04:27:20.161Z,96092.47
2018-12-16T04:29:50.187Z,96093.78
2018-12-16T04:32:20.349Z,96096.29
2018-12-16T04:34:50.353Z,96099.22
2018-12-16T04:37:20.453Z,96102.14
2018-12-16T04:39:51.759Z,96094.14
2018-12-16T04:42:22.256Z,96096.81
2018-12-16T04:44:52.256Z,96093.45
2018-12-16T04:47:23.165Z,96097.69
2018-12-16T04:49:53.154Z,96096.39
2018-12-16T04:52:23.177Z,96099.68
2018-12-16T04:54:53.312Z,96093.83
2018-12-16T04:57:23.371Z,96088.43
2018-12-16T04:59:53.374Z,96084.26
2018-12-16T05:02:24.223Z,96078.41
2018-12-16T05:04:54.862Z,96072.59
2018-12-16T05:07:24.905Z,96067.16
2018-12-16T05:10:06.949Z,96071.45
2018-12-16T05:12:36.988Z,96066.94
2018-12-16T05:15:07.449Z,96061.03
2018-12-16T05:17:37.643Z,96063.13
2018-12-16T05:20:07.797Z,96061.81
2018-12-16T05:22:37.942Z,96061.77
2018-12-16T05:25:08.249Z,96053.86
2018-12-16T05:27:38.581Z,96053.87
2018-12-16T05:30:09.257Z,96051.77
2018-12-16T05:32:39.278Z,96046.75
2018-12-16T05:35:09.333Z,96048.06
2018-12-16T05:37:39.453Z,96045.19
2018-12-16T05:40:09.834Z,96045.97
2018-12-16T05:42:40.108Z,96049.31
2018-12-16T05:45:10.237Z,96043.46
2018-12-16T05:47:41.489Z,96041.83
2018-12-16T05:50:11.857Z,96047.66
2018-12-16T05:52:42.054Z,96045.59
2018-12-16T05:55:12.415Z,96046.07
2018-12-16T05:57:42.790Z,96041.05
2018-12-16T06:00:12.860Z,96036.41
2018-12-16T06:02:43.161Z,96030.28
2018-12-16T06:05:14.823Z,96027.36
2018-12-16T06:07:45.556Z,96026.56
2018-12-16T06:10:15.832Z,96023.17
2018-12-16T06:12:46.017Z,96024.05
2018-12-16T06:15:16.148Z,96010.25
2018-12-16T06:17:46.345Z,96010.73
2018-12-16T06:20:16.715Z,96012.20
2018-12-16T06:22:47.073Z,96006.45
2018-12-16T06:25:17.309Z,96014.81
2018-12-16T06:27:47.763Z,96007.28
2018-12-16T06:30:19.276Z,96015.19
2018-12-16T06:32:49.810Z,96015.19
2018-12-16T06:35:19.883Z,96009.79
2018-12-16T06:37:50.165Z,96001.89
2018-12-16T06:40:20.194Z,95996.98
2018-12-16T06:42:50.221Z,95998.19
2018-12-16T06:45:20.254Z,95996.56
2018-12-16T06:47:50.399Z,95993.70
2018-12-16T06:50:20.591Z,95995.41
2018-12-16T06:52:50.651Z,96005.03
2018-12-16T06:55:20.768Z,96009.58
2018-12-16T06:57:50.814Z,96011.66
2018-12-16T07:00:20.936Z,96007.02
2018-12-16T07:02:54.220Z,96011.27
2018-12-16T07:05:24.260Z,96008.05
2018-12-16T07:07:54.430Z,96003.73
2018-12-16T07:10:24.697Z,95997.19
2018-12-16T07:12:54.771Z,96002.05
2018-12-16T07:15:26.057Z,95996.61
2018-12-16T07:17:56.155Z,95998.97
2018-12-16T07:20:26.268Z,96005.30
2018-12-16T07:22:57.201Z,96009.89
2018-12-16T07:25:27.780Z,96005.25
2018-12-16T07:30:58.542Z,96003.50
2018-12-16T07:33:28.593Z,96010.05
2018-12-16T07:35:58.623Z,96013.30
2018-12-16T07:38:28.913Z,96011.47
2018-12-16T07:40:59.338Z,96013.23
2018-12-16T07:43:29.485Z,96012.72
2018-12-16T07:45:59.560Z,96017.80
2018-12-16T07:48:29.971Z,96014.27
2018-12-16T07:51:00.388Z,96023.79
2018-12-16T07:53:30.820Z,96017.47
2018-12-16T07:56:01.208Z,96013.08
2018-12-16T07:58:31.465Z,96015.39
2018-12-16T08:01:01.610Z,96005.61
2018-12-16T08:03:31.809Z,96014.64
2018-12-16T08:06:02.056Z,96003.14
2018-12-16T08:08:32.160Z,96006.08
2018-12-16T08:11:02.266Z,96003.47
2018-12-16T08:13:32.356Z,96010.62
2018-12-16T08:16:02.471Z,96012.98
2018-12-16T08:18:32.612Z,96013.39
2018-12-16T08:21:02.676Z,96000.63
2018-12-16T08:23:32.749Z,95998.07
2018-12-16T08:26:02.886Z,95988.73
2018-12-16T08:28:32.986Z,95982.28
2018-12-16T08:31:03.061Z,95986.43
2018-12-16T08:33:33.256Z,95990.09
2018-12-16T08:36:03.308Z,95987.95
2018-12-16T08:38:33.513Z,95983.78
2018-12-16T08:41:03.669Z,95987.84
2018-12-16T08:43:33.721Z,95979.05
2018-12-16T08:46:03.767Z,95982.50
2018-12-16T08:48:33.829Z,95988.84
2018-12-16T08:51:04.200Z,95987.20
2018-12-16T08:53:34.240Z,95993.30
2018-12-16T08:56:04.507Z,95990.78
2018-12-16T08:58:34.535Z,95987.77
2018-12-16T09:01:04.932Z,95985.09
2018-12-16T09:03:35.212Z,95979.53
2018-12-16T09:06:05.251Z,95976.80
2018-12-16T09:08:36.156Z,95973.16
2018-12-16T09:11:07.529Z,95970.80
2018-12-16T09:13:37.928Z,95965.97
2018-12-16T09:16:08.232Z,95967.63
2018-12-16T09:18:38.257Z,95952.31
2018-12-16T09:21:08.473Z,95947.78
2018-12-16T09:23:38.498Z,95939.84
2018-12-16T09:26:08.811Z,95935.70
2018-12-16T09:28:39.325Z,95941.16
2018-12-16T09:31:09.702Z,95936.62
2018-12-16T09:33:39.734Z,95935.34
2018-12-16T09:36:09.781Z,95935.01
2018-12-16T09:38:39.816Z,95932.80
2018-12-16T09:41:10.241Z,95931.95
2018-12-16T09:43:40.552Z,95929.52
2018-12-16T09:46:10.595Z,95924.92
2018-12-16T09:48:40.842Z,95929.84
2018-12-16T09:51:11.140Z,95923.77
2018-12-16T09:53:41.375Z,95920.02
2018-12-16T09:56:11.757Z,95915.48
2018-12-16T09:58:41.795Z,95905.27
2018-12-16T10:01:11.833Z,95900.05
2018-12-16T10:03:42.156Z,95906.05
2018-12-16T10:06:12.405Z,95895.16
2018-12-16T10:08:42.550Z,95894.87
2018-12-16T10:11:12.593Z,95893.28
2018-12-16T10:13:42.854Z,95881.70
2018-12-16T10:16:13.103Z,95882.84
2018-12-16T10:18:43.103Z,95872.91
2018-12-16T10:21:13.108Z,95873.19
2018-12-16T10:23:43.260Z,95861.86
2018-12-16T10:26:13.304Z,95868.34
2018-12-16T10:28:43.345Z,95871.30
2018-12-16T10:31:13.440Z,95874.59
2018-12-16T10:33:43.728Z,95882.59
2018-12-16T10:36:14.021Z,95881.59
2018-12-16T10:38:44.598Z,95872.81
2018-12-16T10:41:14.631Z,95878.80
2018-12-16T10:43:45.831Z,95866.03
2018-12-16T10:46:15.830Z,95880.95
2018-12-16T10:48:46.029Z,95877.89
2018-12-16T10:51:16.045Z,95876.83
2018-12-16T10:53:46.107Z,95873.38
2018-12-16T10:56:30.168Z,95863.30
2018-12-16T10:59:00.216Z,95869.33
2018-12-16T11:01:30.278Z,95867.95
2018-12-16T11:04:00.329Z,95871.72
2018-12-16T11:06:31.195Z,95870.34
2018-12-16T11:09:02.567Z,95868.28
2018-12-16T11:11:32.823Z,95864.84
2018-12-16T11:14:03.633Z,95856.44
2018-12-16T11:16:33.900Z,95856.30
2018-12-16T11:19:04.170Z,95855.72
2018-12-16T11:21:34.198Z,95853.17
2018-12-16T11:24:04.455Z,95850.03
2018-12-16T11:26:34.489Z,95839.24
2018-12-16T11:29:04.689Z,95832.36
2018-12-16T11:31:34.834Z,95828.65
2018-12-16T11:34:04.905Z,95820.83
2018-12-16T11:36:35.057Z,95819.22
2018-12-16T11:39:06.577Z,95826.33
2018-12-16T11:41:36.615Z,95821.90
2018-12-16T11:44:06.916Z,95820.44
2018-12-16T11:46:44.183Z,95825.16
2018-12-16T11:49:14.289Z,95823.58
2018-12-16T11:51:45.846Z,95817.81
2018-12-16T11:54:16.094Z,95807.77
2018-12-16T11:56:46.129Z,95805.67
2018-12-16T11:59:16.159Z,95804.98
2018-12-16T12:01:46.492Z,95806.54
2018-12-16T12:04:16.660Z,95804.91
2018-12-16T12:06:47.020Z,95796.34
2018-12-16T12:09:17.356Z,95800.16
2018-12-16T12:11:47.680Z,95806.48
2018-12-16T12:14:18.353Z,95810.39
2018-12-16T12:16:48.450Z,95800.70
2018-12-16T12:19:18.666Z,95797.31
2018-12-16T12:21:48.720Z,95792.69
2018-12-16T12:24:18.814Z,95789.12
2018-12-16T12:26:48.900Z,95786.91
2018-12-16T12:29:18.923Z,95793.10
2018-12-16T12:31:48.982Z,95793.10
2018-12-16T12:34:18.984Z,95790.53
2018-12-16T12:36:49.315Z,95793.10
2018-12-16T12:39:19.868Z,95790.81
2018-12-16T12:41:50.054Z,95790.63
2018-12-16T12:44:20.096Z,95793.95
2018-12-16T12:46:50.164Z,95795.48
2018-12-16T12:49:22.239Z,95804.39
2018-12-16T12:51:52.270Z,95810.56
2018-12-16T12:54:22.720Z,95809.87
2018-12-16T12:56:53.154Z,95811.77
2018-12-16T12:59:23.465Z,95813.81
2018-12-16T13:01:54.403Z,95817.59
2018-12-16T13:04:26.254Z,95818.55
2018-12-16T13:06:58.721Z,95816.11
2018-12-16T13:09:28.784Z,95824.72
2018-12-16T13:11:59.152Z,95814.71
2018-12-16T13:14:29.453Z,95817.59
2018-12-16T13:16:59.753Z,95820.18
2018-12-16T13:19:29.829Z,95828.66
2018-12-16T13:22:01.186Z,95837.17
2018-12-16T13:24:31.253Z,95837.94
2018-12-16T13:27:01.752Z,95843.80
2018-12-16T13:29:32.218Z,95846.42
2018-12-16T13:32:02.691Z,95844.16
2018-12-16T13:34:33.778Z,95845.48
2018-12-16T13:37:03.887Z,95850.26
2018-12-16T13:39:33.915Z,95846.28
2018-12-16T13:42:04.039Z,95844.72
2018-12-16T13:44:34.473Z,95855.28
2018-12-16T13:47:04.559Z,95849.55
2018-12-16T13:49:34.603Z,95850.88
2018-12-16T13:52:04.820Z,95852.20
2018-12-16T13:54:35.245Z,95859.68
2018-12-16T13:57:05.312Z,95867.42
2018-12-16T13:59:35.321Z,95872.13
2018-12-16T14:02:05.692Z,95869.55
2018-12-16T14:04:35.964Z,95880.01
2018-12-16T14:07:06.133Z,95880.44
2018-12-16T14:09:36.206Z,95878.28
2018-12-16T14:12:06.770Z,95882.95
2018-12-16T14:14:36.912Z,95876.79
2018-12-16T14:17:07.306Z,95884.83
2018-12-16T14:19:37.566Z,95890.44
2018-12-16T14:22:07.605Z,95894.22
2018-12-16T14:24:38.665Z,95891.77
2018-12-16T14:27:09.197Z,95898.23
2018-12-16T14:29:39.550Z,95895.02
2018-12-16T14:32:11.334Z,95899.66
2018-12-16T14:34:41.660Z,95902.63
2018-12-16T14:37:11.757Z,95898.09
2018-12-16T14:39:41.816Z,95905.80
2018-12-16T14:42:12.038Z,95919.97
2018-12-16T14:44:42.382Z,95924.36
2018-12-16T14:47:12.602Z,95929.55
2018-12-16T14:49:42.905Z,95931.41
2018-12-16T14:52:31.676Z,95929.81
2018-12-16T14:55:01.897Z,95938.25
2018-12-16T14:57:32.154Z,95932.45
2018-12-16T15:00:02.466Z,95916.04
2018-12-16T15:02:32.900Z,95909.11
2018-12-16T15:05:03.119Z,95910.98
2018-12-16T15:07:34.719Z,95911.47
2018-12-16T15:10:06.825Z,95907.75
2018-12-16T15:12:36.863Z,95911.87
2018-12-16T15:15:08.036Z,95916.44
2018-12-16T15:17:42.754Z,95915.67
2018-12-16T15:20:10.640Z,95916.55
2018-12-16T15:22:40.783Z,95913.21
2018-12-16T15:25:10.935Z,95918.24
2018-12-16T15:27:47.311Z,95918.30
2018-12-16T15:30:17.326Z,95919.50
2018-12-16T15:32:47.347Z,95913.70
2018-12-16T15:35:17.599Z,95917.16
2018-12-16T15:37:47.610Z,95921.30
2018-12-16T15:40:17.654Z,95917.10
2018-12-16T15:42:48.080Z,95916.34
2018-12-16T15:45:18.693Z,95920.52
2018-12-16T15:47:48.709Z,95924.66
2018-12-16T15:50:18.862Z,95925.02
2018-12-16T15:52:48.873Z,95933.14
2018-12-16T15:55:18.928Z,95934.43
2018-12-16T15:57:49.442Z,95934.55
2018-12-16T16:00:21.532Z,95928.66
2018-12-16T16:02:51.586Z,95929.92
2018-12-16T16:05:21.846Z,95932.98
2018-12-16T16:07:51.898Z,95940.06
2018-12-16T16:10:22.093Z,95941.32
2018-12-16T16:12:53.449Z,95942.98
2018-12-16T16:15:24.178Z,95939.98
2018-12-16T16:17:54.889Z,95945.44
2018-12-16T16:20:24.902Z,95942.09
2018-12-16T16:22:55.070Z,95938.81
2018-12-16T16:25:25.270Z,95923.47
2018-12-16T16:27:56.416Z,95923.11
2018-12-16T16:30:26.997Z,95924.48
2018-12-16T16:32:57.373Z,95914.15
2018-12-16T16:35:27.671Z,95911.75
2018-12-16T16:38:00.873Z,95917.27
2018-12-16T16:40:31.930Z,95931.98
2018-12-16T16:43:03.584Z,95931.94
2018-12-16T16:45:33.874Z,95929.73
2018-12-16T16:48:16.485Z,95918.54
2018-12-16T16:50:46.720Z,95920.73
2018-12-16T16:53:17.096Z,95929.59
2018-12-16T16:55:47.248Z,95935.11
2018-12-16T16:58:17.563Z,95938.82
2018-12-16T17:00:47.738Z,95943.51
2018-12-16T17:03:18.907Z,95934.22
2018-12-16T17:05:50.216Z,95936.67
2018-12-16T17:08:21.675Z,95935.36
2018-12-16T17:10:51.856Z,95940.84
2018-12-16T17:13:22.172Z,95943.84
2018-12-16T17:15:52.488Z,95949.70
2018-12-16T17:18:22.694Z,95957.19
2018-12-16T17:20:52.846Z,95954.22
2018-12-16T17:23:22.869Z,95947.63
2018-12-16T17:25:53.743Z,95949.70
2018-12-16T17:28:23.852Z,95962.28
2018-12-16T17:30:53.953Z,95980.73
2018-12-16T17:33:24.105Z,95989.58
2018-12-16T17:35:54.267Z,95994.32
2018-12-16T17:38:24.751Z,95982.88
2018-12-16T17:40:55.131Z,95980.02
2018-12-16T17:43:25.260Z,95979.23
2018-12-16T17:45:55.640Z,95978.50
2018-12-16T17:48:25.973Z,95983.01
2018-12-16T17:50:57.580Z,95977.07
2018-12-16T17:53:27.618Z,95994.66
2018-12-16T17:56:02.555Z,95986.18
2018-12-16T17:58:32.705Z,95979.89
2018-12-16T18:01:03.117Z,95975.70
2018-12-16T18:03:33.290Z,95975.27
2018-12-16T18:06:04.553Z,95973.24
2018-12-16T18:08:35.007Z,95974.50
2018-12-16T18:11:05.209Z,95958.59
2018-12-16T18:13:35.496Z,95977.38
2018-12-16T18:16:05.722Z,95986.18
2018-12-16T18:18:36.023Z,95989.53
2018-12-16T18:21:06.142Z,95989.95
2018-12-16T18:23:36.295Z,95984.55
2018-12-16T18:26:07.240Z,95992.16
2018-12-16T18:28:37.360Z,95994.83
2018-12-16T18:31:07.438Z,95996.46
2018-12-16T18:33:37.944Z,96009.32
2018-12-16T18:36:08.133Z,96016.09
2018-12-16T18:38:39.223Z,96012.45
2018-12-16T18:41:09.361Z,96012.45
2018-12-16T18:43:39.662Z,96007.11
2018-12-16T18:46:09.972Z,96009.78
2018-12-16T18:48:40.044Z,96005.67
2018-12-16T18:51:13.482Z,96013.93
2018-12-16T18:53:43.765Z,96020.98
2018-12-16T18:56:13.955Z,96012.91
2018-12-16T18:58:44.081Z,96021.34
2018-12-16T19:01:26.728Z,96020.98
2018-12-16T19:03:56.796Z,96024.75
2018-12-16T19:06:27.077Z,96017.94
2018-12-16T19:08:57.345Z,96019.59
2018-12-16T19:11:27.358Z,96017.86
2018-12-16T19:14:02.318Z,96012.38
2018-12-16T19:16:32.676Z,96006.81
2018-12-16T19:19:02.981Z,96009.67
2018-12-16T19:21:33.262Z,96009.67
2018-12-16T19:24:04.049Z,96007.11
2018-12-16T19:26:46.073Z,96012.56
2018-12-16T19:29:16.262Z,96012.51
2018-12-16T19:31:46.287Z,96015.13
2018-12-16T19:37:16.828Z,96015.08
2018-12-16T19:39:47.119Z,96015.08
2018-12-16T19:42:17.516Z,96016.76
2018-12-16T19:44:47.737Z,96011.70
2018-12-16T19:47:17.775Z,96017.53
2018-12-16T19:49:48.035Z,96020.82
2018-12-16T19:52:18.234Z,96026.33
2018-12-16T19:54:49.101Z,96021.30
2018-12-16T19:57:19.254Z,96018.31
2018-12-16T19:59:49.285Z,96019.52
2018-12-16T20:02:19.420Z,96024.05
2018-12-16T20:04:54.158Z,96031.78
2018-12-16T20:07:24.274Z,96030.28
2018-12-16T20:09:54.340Z,96032.67
2018-12-16T20:12:24.580Z,96037.22
2018-12-16T20:14:54.736Z,96040.64
2018-12-16T20:17:24.912Z,96055.05
2018-12-16T20:19:55.078Z,96054.67
2018-12-16T20:22:25.564Z,96049.59
2018-12-16T20:24:55.929Z,96052.05
2018-12-16T20:27:26.076Z,96056.12
2018-12-16T20:29:56.872Z,96052.30
2018-12-16T20:32:27.301Z,96060.27
2018-12-16T20:34:57.642Z,96051.47
2018-12-16T20:37:27.700Z,96046.92
2018-12-16T20:39:59.448Z,96055.83
2018-12-16T20:42:30.448Z,96055.77
2018-12-16T20:45:00.553Z,96047.80
2018-12-16T20:47:30.639Z,96056.97
2018-12-16T20:50:00.754Z,96052.94
2018-12-16T20:52:31.149Z,96053.31
2018-12-16T20:55:01.169Z,96049.11
2018-12-16T20:57:31.218Z,96045.98
2018-12-16T21:00:01.269Z,96047.00
2018-12-16T21:02:32.174Z,96046.30
2018-12-16T21:05:03.716Z,96050.00
2018-12-16T21:07:33.781Z,96044.99
2018-12-16T21:10:03.807Z,96053.25
2018-12-16T21:12:39.319Z,96045.10
2018-12-16T21:15:14.685Z,96048.58
2018-12-16T21:17:49.874Z,96051.41
2018-12-16T21:20:20.317Z,96050.12
2018-12-16T21:22:50.496Z,96050.98
2018-12-16T21:25:20.582Z,96053.13
2018-12-16T21:27:50.797Z,96049.56
2018-12-16T21:30:21.072Z,96042.42
2018-12-16T21:32:51.151Z,96045.05
2018-12-16T21:35:21.330Z,96046.73
2018-12-16T21:37:51.360Z,96056.25
2018-12-16T21:40:21.405Z,96060.45
2018-12-16T21:42:51.472Z,96053.31
2018-12-16T21:45:21.530Z,96057.11
2018-12-16T21:47:51.997Z,96065.58
2018-12-16T21:50:22.021Z,96063.13
2018-12-16T21:52:52.202Z,96062.19
2018-12-16T21:55:22.394Z,96062.35
2018-12-16T21:57:52.426Z,96066.55
2018-12-16T22:00:22.858Z,96069.25
2018-12-16T22:02:53.177Z,96074.75
2018-12-16T22:05:28.802Z,96082.64
2018-12-16T22:08:00.362Z,96076.68
2018-12-16T22:10:33.989Z,96074.89
2018-12-16T22:13:04.805Z,96076.97
2018-12-16T22:15:34.832Z,96077.51
2018-12-16T22:18:05.882Z,96066.13
2018-12-16T22:20:37.985Z,96065.02
2018-12-16T22:23:10.349Z,96064.86
2018-12-16T22:25:41.363Z,96059.47
2018-12-16T22:28:13.653Z,96065.82
2018-12-16T22:30:43.672Z,96034.14
2018-12-16T22:33:14.688Z,96063.95
2018-12-16T22:35:45.841Z,96055.93
2018-12-16T22:38:15.844Z,96048.81
2018-12-16T22:40:46.314Z,96050.38
2018-12-16T22:43:16.547Z,96049.59
2018-12-16T22:45:46.558Z,96043.90
2018-12-16T22:48:17.180Z,96048.62
2018-12-16T22:50:47.492Z,96044.48
2018-12-16T22:53:17.769Z,96037.05
2018-12-16T22:55:47.888Z,96038.79
2018-12-16T22:58:17.908Z,96039.52
2018-12-16T23:03:48.700Z,96044.11
2018-12-16T23:06:19.001Z,96047.05
2018-12-16T23:08:50.003Z,96045.91
2018-12-16T23:11:20.096Z,96050.88
2018-12-16T23:13:50.588Z,96047.64
2018-12-16T23:16:20.641Z,96050.58
2018-12-16T23:18:51.128Z,96049.80
2018-12-16T23:21:35.356Z,96056.00
2018-12-16T23:24:05.380Z,96055.95
2018-12-16T23:26:35.669Z,96045.07
2018-12-16T23:29:06.032Z,96048.42
2018-12-16T23:31:36.778Z,96043.47
2018-12-16T23:40:08.551Z,96040.25
2018-12-16T23:42:38.651Z,96029.19
2018-12-16T23:45:09.690Z,96041.11
2018-12-16T23:47:39.796Z,96029.70
2018-12-16T23:50:10.230Z,96028.39
2018-12-16T23:52:40.546Z,96033.68
2018-12-16T23:55:10.954Z,96035.31
2018-12-16T23:57:41.022Z,96026.91
